Aviation Digital Data Service (ADDS)

Output produced by METARs form (0848 UTC 19 April 2019)
found at http://www.aviationweather.gov/metar/data/
 
Forecast for: VAAU (AURANGABAD AIRPO, IN)
Text: TAF VAAU 190800Z 1909/1918 VRB03KT 5000 HZ NSC
Forecast period: 0900 to 1200 UTC 19 April 2019
Forecast type: FROM: standard forecast or significant change
Winds: variable direction winds at 3 MPH (3 knots; 1.5 m/s)
Visibility: 3 miles (5 km)
Ceiling: unknown
Clouds: missing
Weather: HZ  (haze)
Text: BECMG 1912/1914 25007KT 4000 HZ
Forecast period: 1200 to 1800 UTC 19 April 2019
Forecast type: BECOMING: Conditions expected to become as follows by 1400 UTC 19 April 2019
Winds: from the WSW (250 degrees) at 8 MPH (7 knots; 3.6 m/s)
Visibility: 2.49 miles (4.01 km)
Ceiling: unknown
Clouds: missing
Weather: HZ  (haze)